Date,TemperatureHighF,TemperatureAvgF,TemperatureLowF,DewpointHighF,DewpointAvgF,DewpointLowF,HumidityHigh,HumidityAvg,HumidityLow,PressureMaxIn,PressureMinIn,WindSpeedMaxMPH,WindSpeedAvgMPH,GustSpeedMaxMPH,PrecipitationSumIn
2013-5-1,89.1,73.5,66.0,60.3,38.6,22.6,75,32,11,29.94,29.83,8,1,8,0.00
2013-5-2,81.9,68.4,55.6,47.2,34.1,24.3,47,30,14,30.09,29.88,10,2,11,0.00
2013-5-3,70.7,55.7,44.1,24.4,16.3,6.4,30,22,14,30.18,30.06,16,9,16,0.00
2013-5-4,79.0,61.4,39.9,30.6,19.5,12.2,37,22,12,30.12,29.83,10,3,10,0.00
2013-5-5,74.8,60.0,44.8,27.7,18.2,9.9,33,21,13,30.09,29.94,3,3,6,0.00
2013-5-6,86.5,64.3,44.6,30.4,21.2,14.7,38,21,11,30.15,29.94,6,3,6,0.00
2013-5-7,89.6,69.7,55.6,39.0,27.0,18.4,36,23,10,30.12,29.97,6,2,6,0.00
2013-5-8,86.9,71.7,56.5,41.4,30.1,19.5,38,23,11,30.15,30.00,3,2,6,0.00
2013-5-9,80.1,73.1,67.6,45.6,40.3,34.1,38,31,21,30.09,29.85,6,2,6,0.00
2013-5-10,83.7,70.7,65.1,64.4,40.1,24.3,90,38,14,30.09,29.85,6,2,6,0.00
2013-5-11,90.0,74.6,65.8,66.8,39.7,22.4,87,35,12,30.09,29.94,6,2,6,0.00
2013-5-12,90.3,72.5,59.9,43.7,29.3,15.7,43,23,11,30.21,30.06,6,2,6,0.00
2013-5-13,87.1,68.4,51.1,35.0,24.4,17.0,38,21,11,30.36,30.18,6,2,6,0.00
2013-5-14,89.2,72.3,55.6,40.9,28.4,18.4,37,22,11,30.30,30.12,6,3,6,0.00
2013-5-15,84.6,72.3,63.1,45.0,33.2,25.2,39,25,13,30.18,29.94,9,3,9,0.00
2013-5-16,71.4,70.9,70.2,40.5,39.6,38.9,33,32,32,29.97,29.94,0,0,2,0.00
2013-5-17,90.0,87.0,82.0,36.9,32.3,28.1,19,14,12,29.97,29.91,2,2,6,0.00
2013-5-18,90.1,87.2,76.5,43.6,32.7,30.4,31,15,12,30.00,29.97,5,2,5,0.00
2013-5-21,90.1,90.1,90.1,30.7,30.7,30.7,12,12,12,29.97,29.97,2,2,5,0.00
2013-5-24,90.1,90.1,90.1,30.7,30.7,30.7,12,12,12,29.97,29.97,2,2,5,0.00
2013-5-25,90.1,90.1,90.1,30.7,30.7,30.7,12,12,12,30.00,30.00,5,5,0,0.00
2013-5-26,95.2,81.0,70.0,57.2,35.9,28.0,43,22,11,30.18,30.00,5,5,0,0.00
2013-5-27,91.8,80.7,70.5,43.7,35.4,28.0,38,22,12,30.12,29.94,5,5,5,0.00
2013-5-28,91.9,82.1,73.8,44.9,36.1,29.1,34,21,12,30.03,29.88,5,5,0,0.00
2013-5-29,91.6,81.8,73.6,47.9,37.4,28.8,39,22,12,29.97,29.83,5,5,0,0.00
2013-5-30,93.2,83.2,76.8,48.7,40.2,29.6,37,23,11,29.94,29.83,5,5,0,0.00
2013-5-31,92.8,83.1,78.6,52.4,43.6,34.7,38,26,14,29.97,29.83,5,5,0,0.00